Search for airport 
image banner adimage banner adimage banner ad
image banner ad

UGSB - Batumi

Located in Batumi, Georgia

ICAO - UGSB, IATA - BUS

Data provided by Airmate  

General information

Coordinates: N41°36'37" E41°35'58"
Elevation is 37 feet MSL.
Magnetic variation is 5° East
View others Airports in Adjara

Operational data

Special qualification required
Current time UTC:
Current local time:
Weather
METAR: UGSB 082230Z 22024G37KT 9999 SCT110 18/13 Q1015 NOSIG
TAF: TAF AMD UGSB 082221Z 0822/0918 22017KT 9999 -SHRA SCT023CB BKN035 BKN100 TX18/0911Z TN15/0902Z TEMPO 0822/0906 23027G37KT 3000 TSRA BKN010 OVC020CB TEMPO 0906/0915 24027G37KT 3000 TSRA BKN006 OVC017CB
View NOTAMs / SUP AIP / TFR affecting this airport [VIEW]
Communications frequencies: [VIEW]

Runways:

RWY identifierQFULength (ft)Width (ft)SurfaceLDA (ft)
13131°8202148CONC+ASPH8202
31311°8202148CONC+ASPH8202

Airport contact information

Address: Batumi Georgia

Satellite view of UGSB